Details for All Nippon Airways at RJBB




Go Back


Latest METAR
Local Time

RJBB 181400Z AUTO 09006KT 9999 FEW043 25/19 Q1014 NOSIG
18/09/2018, 23:21:32

Description
Results
All Nippon Airways Logo
Number of Pilots based at RJBB
0 Pilots Based here
Number of All Nippon Airways Flights Departed from RJBB
0 Flights Departed
Number of All Nippon Airways Flights Arrived at RJBB
0 Flights Arrived
Number of All Nippon Airways Schedules Departing from RJBB
23 Schedules
Number of All Nippon Airways Schedules Arriving at RJBB
23 Schedules
Number of All Nippon Airways Schedules Departing from RJBB availible today
22 Schedules Today
Number of All Nippon Airways Schedules Arriving at RJBB availible today
22 Schedules Today
Average Landing Rate at RJBB
-154 fpm
All Nippon Airways Average Landing Rate at RJBB
0 fpm
Total Fuel Purchased at RJBB by All Nippon Airways
0.00 kgs / 0.00 lbs

Pilots Based at RJBB


Pilot ID
Pilot Name
Pilot Rank
No. of Flights
No. of Flying Hours
There are no pilots assigned to this hub!   Will you be the first?
Content